sensor_id;sensor_type;location;lat;lon;timestamp;temperature;humidity
4312;DHT22;2169;49.086;9.284;2022-12-10T00:01:49;2.60;70.10
4312;DHT22;2169;49.086;9.284;2022-12-10T00:04:17;2.60;70.10
4312;DHT22;2169;49.086;9.284;2022-12-10T00:06:47;2.60;70.10
4312;DHT22;2169;49.086;9.284;2022-12-10T00:09:15;2.60;70.10
4312;DHT22;2169;49.086;9.284;2022-12-10T00:11:43;2.60;70.10
4312;DHT22;2169;49.086;9.284;2022-12-10T00:14:11;2.60;70.20
4312;DHT22;2169;49.086;9.284;2022-12-10T00:16:38;2.60;70.20
4312;DHT22;2169;49.086;9.284;2022-12-10T00:19:06;2.60;70.20
4312;DHT22;2169;49.086;9.284;2022-12-10T00:21:34;2.60;70.20
4312;DHT22;2169;49.086;9.284;2022-12-10T00:24:04;2.60;70.20
4312;DHT22;2169;49.086;9.284;2022-12-10T00:26:34;2.60;70.20
4312;DHT22;2169;49.086;9.284;2022-12-10T00:29:03;2.60;70.20
4312;DHT22;2169;49.086;9.284;2022-12-10T00:31:32;2.50;70.10
4312;DHT22;2169;49.086;9.284;2022-12-10T00:34:01;2.50;70.10
4312;DHT22;2169;49.086;9.284;2022-12-10T00:36:30;2.50;70.10
4312;DHT22;2169;49.086;9.284;2022-12-10T00:38:58;2.50;70.10
4312;DHT22;2169;49.086;9.284;2022-12-10T00:41:27;2.50;70.10
4312;DHT22;2169;49.086;9.284;2022-12-10T00:43:54;2.50;70.80
4312;DHT22;2169;49.086;9.284;2022-12-10T00:46:21;2.50;70.10
4312;DHT22;2169;49.086;9.284;2022-12-10T00:48:49;2.50;70.20
4312;DHT22;2169;49.086;9.284;2022-12-10T00:51:17;2.50;70.20
4312;DHT22;2169;49.086;9.284;2022-12-10T00:53:46;2.50;70.20
4312;DHT22;2169;49.086;9.284;2022-12-10T00:56:15;2.40;70.10
4312;DHT22;2169;49.086;9.284;2022-12-10T00:58:44;2.40;70.20
4312;DHT22;2169;49.086;9.284;2022-12-10T01:01:19;2.40;70.10
4312;DHT22;2169;49.086;9.284;2022-12-10T01:03:48;2.40;70.20
4312;DHT22;2169;49.086;9.284;2022-12-10T01:06:18;2.40;70.20
4312;DHT22;2169;49.086;9.284;2022-12-10T01:08:46;2.40;70.20
4312;DHT22;2169;49.086;9.284;2022-12-10T01:11:16;2.40;70.20
4312;DHT22;2169;49.086;9.284;2022-12-10T01:13:48;2.40;70.20
4312;DHT22;2169;49.086;9.284;2022-12-10T01:16:17;2.40;70.20
4312;DHT22;2169;49.086;9.284;2022-12-10T01:18:44;2.40;70.20
4312;DHT22;2169;49.086;9.284;2022-12-10T01:21:15;2.40;70.20
4312;DHT22;2169;49.086;9.284;2022-12-10T01:23:43;2.40;70.20
4312;DHT22;2169;49.086;9.284;2022-12-10T01:26:12;2.40;70.20
4312;DHT22;2169;49.086;9.284;2022-12-10T01:28:40;2.40;70.20
4312;DHT22;2169;49.086;9.284;2022-12-10T01:31:12;2.40;70.20
4312;DHT22;2169;49.086;9.284;2022-12-10T01:33:40;2.40;70.20
4312;DHT22;2169;49.086;9.284;2022-12-10T01:36:10;2.40;70.20
4312;DHT22;2169;49.086;9.284;2022-12-10T01:38:37;2.40;70.20
4312;DHT22;2169;49.086;9.284;2022-12-10T01:41:06;2.40;70.20
4312;DHT22;2169;49.086;9.284;2022-12-10T01:43:53;2.40;70.20
4312;DHT22;2169;49.086;9.284;2022-12-10T01:46:22;2.50;70.30
4312;DHT22;2169;49.086;9.284;2022-12-10T01:48:50;2.40;70.20
4312;DHT22;2169;49.086;9.284;2022-12-10T01:51:17;2.40;70.20
4312;DHT22;2169;49.086;9.284;2022-12-10T01:53:45;2.40;70.20
4312;DHT22;2169;49.086;9.284;2022-12-10T01:56:13;2.40;70.20
4312;DHT22;2169;49.086;9.284;2022-12-10T01:58:41;2.40;70.20
4312;DHT22;2169;49.086;9.284;2022-12-10T02:01:12;2.40;70.20
4312;DHT22;2169;49.086;9.284;2022-12-10T02:03:52;2.40;71.00
4312;DHT22;2169;49.086;9.284;2022-12-10T02:06:36;2.40;70.30
4312;DHT22;2169;49.086;9.284;2022-12-10T02:09:11;2.40;70.20
4312;DHT22;2169;49.086;9.284;2022-12-10T02:11:44;2.40;70.30
4312;DHT22;2169;49.086;9.284;2022-12-10T02:14:17;2.50;70.30
4312;DHT22;2169;49.086;9.284;2022-12-10T02:16:48;2.50;70.30
4312;DHT22;2169;49.086;9.284;2022-12-10T02:19:23;2.50;70.30
4312;DHT22;2169;49.086;9.284;2022-12-10T02:21:53;2.50;70.30
4312;DHT22;2169;49.086;9.284;2022-12-10T02:24:25;2.50;70.20
4312;DHT22;2169;49.086;9.284;2022-12-10T02:27:00;2.50;70.20
4312;DHT22;2169;49.086;9.284;2022-12-10T02:29:33;2.50;70.20
4312;DHT22;2169;49.086;9.284;2022-12-10T02:32:05;2.50;70.20
4312;DHT22;2169;49.086;9.284;2022-12-10T02:34:35;2.50;70.20
4312;DHT22;2169;49.086;9.284;2022-12-10T02:37:06;2.50;70.30
4312;DHT22;2169;49.086;9.284;2022-12-10T02:39:36;2.50;70.20
4312;DHT22;2169;49.086;9.284;2022-12-10T02:42:06;2.50;70.20
4312;DHT22;2169;49.086;9.284;2022-12-10T02:44:36;2.50;70.20
4312;DHT22;2169;49.086;9.284;2022-12-10T02:47:05;2.50;70.20
4312;DHT22;2169;49.086;9.284;2022-12-10T02:49:33;2.50;70.20
4312;DHT22;2169;49.086;9.284;2022-12-10T02:52:07;2.50;70.20
4312;DHT22;2169;49.086;9.284;2022-12-10T02:54:40;2.50;70.10
4312;DHT22;2169;49.086;9.284;2022-12-10T02:57:18;2.40;70.00
4312;DHT22;2169;49.086;9.284;2022-12-10T03:00:03;2.40;70.00
4312;DHT22;2169;49.086;9.284;2022-12-10T03:02:38;2.40;70.10
4312;DHT22;2169;49.086;9.284;2022-12-10T03:05:13;2.40;70.10
4312;DHT22;2169;49.086;9.284;2022-12-10T03:07:47;2.40;70.10
4312;DHT22;2169;49.086;9.284;2022-12-10T03:10:21;2.40;70.10
4312;DHT22;2169;49.086;9.284;2022-12-10T03:12:54;2.40;70.20
4312;DHT22;2169;49.086;9.284;2022-12-10T03:15:25;2.40;70.20
4312;DHT22;2169;49.086;9.284;2022-12-10T03:17:54;2.40;70.20
4312;DHT22;2169;49.086;9.284;2022-12-10T03:20:23;2.40;70.20
4312;DHT22;2169;49.086;9.284;2022-12-10T03:22:51;2.40;70.20
4312;DHT22;2169;49.086;9.284;2022-12-10T03:25:22;2.40;70.20
4312;DHT22;2169;49.086;9.284;2022-12-10T03:27:53;2.40;70.20
4312;DHT22;2169;49.086;9.284;2022-12-10T03:30:21;2.40;70.20
4312;DHT22;2169;49.086;9.284;2022-12-10T03:32:50;2.30;70.10
4312;DHT22;2169;49.086;9.284;2022-12-10T03:35:19;2.30;70.10
4312;DHT22;2169;49.086;9.284;2022-12-10T03:37:48;2.30;70.10
4312;DHT22;2169;49.086;9.284;2022-12-10T03:40:16;2.30;70.10
4312;DHT22;2169;49.086;9.284;2022-12-10T03:42:44;2.20;70.00
4312;DHT22;2169;49.086;9.284;2022-12-10T03:45:11;2.30;70.10
4312;DHT22;2169;49.086;9.284;2022-12-10T03:47:39;2.20;70.00
4312;DHT22;2169;49.086;9.284;2022-12-10T03:50:10;2.20;70.10
4312;DHT22;2169;49.086;9.284;2022-12-10T03:52:37;2.20;70.10
4312;DHT22;2169;49.086;9.284;2022-12-10T03:55:05;2.20;70.70
4312;DHT22;2169;49.086;9.284;2022-12-10T03:57:32;2.20;70.10
4312;DHT22;2169;49.086;9.284;2022-12-10T03:59:59;2.20;70.20
4312;DHT22;2169;49.086;9.284;2022-12-10T04:02:26;2.10;70.10
4312;DHT22;2169;49.086;9.284;2022-12-10T04:04:54;2.10;70.10
4312;DHT22;2169;49.086;9.284;2022-12-10T04:07:22;2.10;70.10
4312;DHT22;2169;49.086;9.284;2022-12-10T04:09:50;2.10;70.10
4312;DHT22;2169;49.086;9.284;2022-12-10T04:12:17;2.10;70.20
4312;DHT22;2169;49.086;9.284;2022-12-10T04:14:44;2.10;70.10
4312;DHT22;2169;49.086;9.284;2022-12-10T04:17:37;2.10;70.20
4312;DHT22;2169;49.086;9.284;2022-12-10T04:20:05;2.00;70.10
4312;DHT22;2169;49.086;9.284;2022-12-10T04:22:53;2.00;70.10
4312;DHT22;2169;49.086;9.284;2022-12-10T04:25:38;2.10;70.30
4312;DHT22;2169;49.086;9.284;2022-12-10T04:28:22;2.10;70.30
4312;DHT22;2169;49.086;9.284;2022-12-10T04:30:49;2.10;70.30
4312;DHT22;2169;49.086;9.284;2022-12-10T04:33:15;2.00;70.20
4312;DHT22;2169;49.086;9.284;2022-12-10T04:35:42;2.00;70.20
4312;DHT22;2169;49.086;9.284;2022-12-10T04:38:11;2.00;70.20
4312;DHT22;2169;49.086;9.284;2022-12-10T04:40:38;2.00;70.20
4312;DHT22;2169;49.086;9.284;2022-12-10T04:43:05;2.00;70.20
4312;DHT22;2169;49.086;9.284;2022-12-10T04:45:34;2.00;70.30
4312;DHT22;2169;49.086;9.284;2022-12-10T04:48:01;2.00;70.30
4312;DHT22;2169;49.086;9.284;2022-12-10T04:50:28;2.00;70.30
4312;DHT22;2169;49.086;9.284;2022-12-10T04:52:54;2.00;70.30
4312;DHT22;2169;49.086;9.284;2022-12-10T04:55:23;2.00;70.30
4312;DHT22;2169;49.086;9.284;2022-12-10T04:57:50;2.00;70.30
4312;DHT22;2169;49.086;9.284;2022-12-10T05:00:19;2.00;70.30
4312;DHT22;2169;49.086;9.284;2022-12-10T05:02:48;2.00;70.30
4312;DHT22;2169;49.086;9.284;2022-12-10T05:05:15;1.90;70.30
4312;DHT22;2169;49.086;9.284;2022-12-10T05:07:42;1.90;70.20
4312;DHT22;2169;49.086;9.284;2022-12-10T05:10:09;1.90;70.30
4312;DHT22;2169;49.086;9.284;2022-12-10T05:12:37;1.90;70.30
4312;DHT22;2169;49.086;9.284;2022-12-10T05:15:05;1.90;70.30
4312;DHT22;2169;49.086;9.284;2022-12-10T05:17:32;1.90;70.30
4312;DHT22;2169;49.086;9.284;2022-12-10T05:19:59;1.90;70.30
4312;DHT22;2169;49.086;9.284;2022-12-10T05:22:27;1.90;70.30
4312;DHT22;2169;49.086;9.284;2022-12-10T05:25:11;1.90;70.30
4312;DHT22;2169;49.086;9.284;2022-12-10T05:27:40;1.90;70.30
4312;DHT22;2169;49.086;9.284;2022-12-10T05:30:09;1.90;70.30
4312;DHT22;2169;49.086;9.284;2022-12-10T05:32:36;2.00;70.40
4312;DHT22;2169;49.086;9.284;2022-12-10T05:35:03;2.00;70.40
4312;DHT22;2169;49.086;9.284;2022-12-10T05:37:32;1.90;70.30
4312;DHT22;2169;49.086;9.284;2022-12-10T05:40:00;2.00;70.40
4312;DHT22;2169;49.086;9.284;2022-12-10T05:42:27;1.90;70.30
4312;DHT22;2169;49.086;9.284;2022-12-10T05:44:56;1.90;70.30
4312;DHT22;2169;49.086;9.284;2022-12-10T05:47:23;1.90;70.30
4312;DHT22;2169;49.086;9.284;2022-12-10T05:49:50;1.90;70.40
4312;DHT22;2169;49.086;9.284;2022-12-10T05:52:18;1.90;70.40
4312;DHT22;2169;49.086;9.284;2022-12-10T05:54:45;1.90;70.40
4312;DHT22;2169;49.086;9.284;2022-12-10T05:57:13;1.90;70.40
4312;DHT22;2169;49.086;9.284;2022-12-10T05:59:42;1.90;70.40
4312;DHT22;2169;49.086;9.284;2022-12-10T06:02:11;1.90;70.40
4312;DHT22;2169;49.086;9.284;2022-12-10T06:04:38;1.90;70.40
4312;DHT22;2169;49.086;9.284;2022-12-10T06:07:06;1.90;70.40
4312;DHT22;2169;49.086;9.284;2022-12-10T06:09:33;1.90;70.40
4312;DHT22;2169;49.086;9.284;2022-12-10T06:12:00;1.90;70.40
4312;DHT22;2169;49.086;9.284;2022-12-10T06:14:27;1.90;70.40
4312;DHT22;2169;49.086;9.284;2022-12-10T06:16:54;1.90;70.40
4312;DHT22;2169;49.086;9.284;2022-12-10T06:19:22;1.90;70.40
4312;DHT22;2169;49.086;9.284;2022-12-10T06:21:49;1.90;70.40
4312;DHT22;2169;49.086;9.284;2022-12-10T06:24:17;1.90;70.40
4312;DHT22;2169;49.086;9.284;2022-12-10T06:26:44;1.90;70.40
4312;DHT22;2169;49.086;9.284;2022-12-10T06:29:11;1.90;70.40
4312;DHT22;2169;49.086;9.284;2022-12-10T06:31:38;1.80;70.30
4312;DHT22;2169;49.086;9.284;2022-12-10T06:34:05;1.90;70.40
4312;DHT22;2169;49.086;9.284;2022-12-10T06:36:33;1.80;70.40
4312;DHT22;2169;49.086;9.284;2022-12-10T06:39:00;1.80;70.40
4312;DHT22;2169;49.086;9.284;2022-12-10T06:41:27;1.80;70.50
4312;DHT22;2169;49.086;9.284;2022-12-10T06:43:54;1.80;70.40
4312;DHT22;2169;49.086;9.284;2022-12-10T06:46:24;1.80;70.40
4312;DHT22;2169;49.086;9.284;2022-12-10T06:48:51;1.80;70.40
4312;DHT22;2169;49.086;9.284;2022-12-10T06:51:18;1.80;70.50
4312;DHT22;2169;49.086;9.284;2022-12-10T06:53:47;1.80;70.50
4312;DHT22;2169;49.086;9.284;2022-12-10T06:56:15;1.80;70.50
4312;DHT22;2169;49.086;9.284;2022-12-10T06:58:44;1.80;70.50
4312;DHT22;2169;49.086;9.284;2022-12-10T07:01:12;1.80;70.50
4312;DHT22;2169;49.086;9.284;2022-12-10T07:03:40;1.80;70.50
4312;DHT22;2169;49.086;9.284;2022-12-10T07:06:11;1.80;70.50
4312;DHT22;2169;49.086;9.284;2022-12-10T07:08:38;1.80;70.50
4312;DHT22;2169;49.086;9.284;2022-12-10T07:11:08;1.80;70.60
4312;DHT22;2169;49.086;9.284;2022-12-10T07:13:35;1.80;70.60
4312;DHT22;2169;49.086;9.284;2022-12-10T07:16:03;1.80;70.60
4312;DHT22;2169;49.086;9.284;2022-12-10T07:18:37;1.80;70.50
4312;DHT22;2169;49.086;9.284;2022-12-10T07:21:13;1.80;70.50
4312;DHT22;2169;49.086;9.284;2022-12-10T07:23:40;1.80;70.60
4312;DHT22;2169;49.086;9.284;2022-12-10T07:26:09;1.80;70.50
4312;DHT22;2169;49.086;9.284;2022-12-10T07:28:36;1.80;70.60
4312;DHT22;2169;49.086;9.284;2022-12-10T07:31:03;1.80;70.50
4312;DHT22;2169;49.086;9.284;2022-12-10T07:33:30;1.80;70.50
4312;DHT22;2169;49.086;9.284;2022-12-10T07:35:57;1.80;70.60
4312;DHT22;2169;49.086;9.284;2022-12-10T07:38:25;1.80;70.50
4312;DHT22;2169;49.086;9.284;2022-12-10T07:40:52;1.80;70.50
4312;DHT22;2169;49.086;9.284;2022-12-10T07:43:20;1.80;70.50
4312;DHT22;2169;49.086;9.284;2022-12-10T07:45:47;1.80;70.50
4312;DHT22;2169;49.086;9.284;2022-12-10T07:48:14;1.80;70.60
4312;DHT22;2169;49.086;9.284;2022-12-10T07:50:42;1.80;70.50
4312;DHT22;2169;49.086;9.284;2022-12-10T07:53:09;1.80;70.50
4312;DHT22;2169;49.086;9.284;2022-12-10T07:55:36;1.80;70.50
4312;DHT22;2169;49.086;9.284;2022-12-10T07:58:05;1.80;70.50
4312;DHT22;2169;49.086;9.284;2022-12-10T08:00:33;1.80;70.50
4312;DHT22;2169;49.086;9.284;2022-12-10T08:03:00;1.80;70.60
4312;DHT22;2169;49.086;9.284;2022-12-10T08:05:28;1.80;70.60
4312;DHT22;2169;49.086;9.284;2022-12-10T08:07:55;1.80;70.60
4312;DHT22;2169;49.086;9.284;2022-12-10T08:10:22;1.80;70.60
4312;DHT22;2169;49.086;9.284;2022-12-10T08:12:49;1.80;70.60
4312;DHT22;2169;49.086;9.284;2022-12-10T08:15:17;1.90;70.70
4312;DHT22;2169;49.086;9.284;2022-12-10T08:17:45;1.80;70.60
4312;DHT22;2169;49.086;9.284;2022-12-10T08:20:12;1.80;70.60
4312;DHT22;2169;49.086;9.284;2022-12-10T08:22:39;1.90;70.70
4312;DHT22;2169;49.086;9.284;2022-12-10T08:25:07;1.90;70.70
4312;DHT22;2169;49.086;9.284;2022-12-10T08:27:34;1.90;70.70
4312;DHT22;2169;49.086;9.284;2022-12-10T08:30:03;1.90;70.70
4312;DHT22;2169;49.086;9.284;2022-12-10T08:32:33;1.90;70.60
4312;DHT22;2169;49.086;9.284;2022-12-10T08:35:01;1.90;70.60
4312;DHT22;2169;49.086;9.284;2022-12-10T08:37:28;1.90;70.60
4312;DHT22;2169;49.086;9.284;2022-12-10T08:39:55;2.00;70.70
4312;DHT22;2169;49.086;9.284;2022-12-10T08:42:22;2.00;70.70
4312;DHT22;2169;49.086;9.284;2022-12-10T08:44:49;2.00;70.70
4312;DHT22;2169;49.086;9.284;2022-12-10T08:47:16;2.00;70.70
4312;DHT22;2169;49.086;9.284;2022-12-10T08:49:44;2.00;70.70
4312;DHT22;2169;49.086;9.284;2022-12-10T08:52:13;2.10;70.80
4312;DHT22;2169;49.086;9.284;2022-12-10T08:54:39;2.10;70.80
4312;DHT22;2169;49.086;9.284;2022-12-10T08:57:06;2.10;70.70
4312;DHT22;2169;49.086;9.284;2022-12-10T08:59:35;2.10;71.30
4312;DHT22;2169;49.086;9.284;2022-12-10T09:02:02;2.10;70.70
4312;DHT22;2169;49.086;9.284;2022-12-10T09:04:29;2.10;70.70
4312;DHT22;2169;49.086;9.284;2022-12-10T09:06:56;2.20;70.80
4312;DHT22;2169;49.086;9.284;2022-12-10T09:09:25;2.20;70.80
4312;DHT22;2169;49.086;9.284;2022-12-10T09:11:52;2.20;70.80
4312;DHT22;2169;49.086;9.284;2022-12-10T09:14:19;2.20;70.70
4312;DHT22;2169;49.086;9.284;2022-12-10T09:16:46;2.20;70.70
4312;DHT22;2169;49.086;9.284;2022-12-10T09:19:13;2.20;70.70
4312;DHT22;2169;49.086;9.284;2022-12-10T09:21:40;2.20;70.70
4312;DHT22;2169;49.086;9.284;2022-12-10T09:24:08;2.30;70.70
4312;DHT22;2169;49.086;9.284;2022-12-10T09:26:37;2.30;70.70
4312;DHT22;2169;49.086;9.284;2022-12-10T09:29:04;2.30;70.60
4312;DHT22;2169;49.086;9.284;2022-12-10T09:31:31;2.30;71.30
4312;DHT22;2169;49.086;9.284;2022-12-10T09:33:58;2.30;70.60
4312;DHT22;2169;49.086;9.284;2022-12-10T09:36:26;2.20;70.50
4312;DHT22;2169;49.086;9.284;2022-12-10T09:38:53;2.30;70.60
4312;DHT22;2169;49.086;9.284;2022-12-10T09:41:34;2.30;70.50
4312;DHT22;2169;49.086;9.284;2022-12-10T09:44:08;2.30;70.60
4312;DHT22;2169;49.086;9.284;2022-12-10T09:46:47;2.30;70.50
4312;DHT22;2169;49.086;9.284;2022-12-10T09:49:23;2.30;70.50
4312;DHT22;2169;49.086;9.284;2022-12-10T09:51:57;2.40;70.60
4312;DHT22;2169;49.086;9.284;2022-12-10T09:54:29;2.40;70.60
4312;DHT22;2169;49.086;9.284;2022-12-10T09:56:57;2.40;70.50
4312;DHT22;2169;49.086;9.284;2022-12-10T09:59:31;2.40;70.50
4312;DHT22;2169;49.086;9.284;2022-12-10T10:02:09;2.50;70.50
4312;DHT22;2169;49.086;9.284;2022-12-10T10:04:38;2.50;70.50
4312;DHT22;2169;49.086;9.284;2022-12-10T10:07:05;2.50;70.40
4312;DHT22;2169;49.086;9.284;2022-12-10T10:09:36;2.50;70.40
4312;DHT22;2169;49.086;9.284;2022-12-10T10:12:10;2.50;70.40
4312;DHT22;2169;49.086;9.284;2022-12-10T10:14:39;2.50;70.40
4312;DHT22;2169;49.086;9.284;2022-12-10T10:17:09;2.50;70.40
4312;DHT22;2169;49.086;9.284;2022-12-10T10:19:39;2.60;70.40
4312;DHT22;2169;49.086;9.284;2022-12-10T10:22:09;2.60;70.30
4312;DHT22;2169;49.086;9.284;2022-12-10T10:24:39;2.60;70.30
4312;DHT22;2169;49.086;9.284;2022-12-10T10:27:13;2.70;70.40
4312;DHT22;2169;49.086;9.284;2022-12-10T10:29:44;2.70;70.40
4312;DHT22;2169;49.086;9.284;2022-12-10T10:32:16;2.80;70.40
4312;DHT22;2169;49.086;9.284;2022-12-10T10:34:45;2.80;70.40
4312;DHT22;2169;49.086;9.284;2022-12-10T10:37:26;2.80;70.30
4312;DHT22;2169;49.086;9.284;2022-12-10T10:39:55;2.80;70.20
4312;DHT22;2169;49.086;9.284;2022-12-10T10:42:28;2.80;70.10
4312;DHT22;2169;49.086;9.284;2022-12-10T10:45:02;2.90;70.20
4312;DHT22;2169;49.086;9.284;2022-12-10T10:47:30;2.90;70.20
4312;DHT22;2169;49.086;9.284;2022-12-10T10:49:58;2.90;70.20
4312;DHT22;2169;49.086;9.284;2022-12-10T10:52:28;2.90;70.10
4312;DHT22;2169;49.086;9.284;2022-12-10T10:54:56;3.00;70.20
4312;DHT22;2169;49.086;9.284;2022-12-10T10:57:24;3.00;70.10
4312;DHT22;2169;49.086;9.284;2022-12-10T10:59:54;3.00;70.10
4312;DHT22;2169;49.086;9.284;2022-12-10T11:02:29;3.00;70.10
4312;DHT22;2169;49.086;9.284;2022-12-10T11:04:57;3.00;70.00
4312;DHT22;2169;49.086;9.284;2022-12-10T11:07:33;3.10;70.10
4312;DHT22;2169;49.086;9.284;2022-12-10T11:10:01;3.10;70.10
4312;DHT22;2169;49.086;9.284;2022-12-10T11:12:34;3.10;70.10
4312;DHT22;2169;49.086;9.284;2022-12-10T11:15:24;3.20;70.00
4312;DHT22;2169;49.086;9.284;2022-12-10T11:17:56;3.30;70.10
4312;DHT22;2169;49.086;9.284;2022-12-10T11:20:25;3.30;70.10
4312;DHT22;2169;49.086;9.284;2022-12-10T11:22:55;3.40;70.00
4312;DHT22;2169;49.086;9.284;2022-12-10T11:25:30;3.40;69.90
4312;DHT22;2169;49.086;9.284;2022-12-10T11:28:01;3.50;69.70
4312;DHT22;2169;49.086;9.284;2022-12-10T11:30:35;3.50;69.70
4312;DHT22;2169;49.086;9.284;2022-12-10T11:33:19;3.50;69.50
4312;DHT22;2169;49.086;9.284;2022-12-10T11:35:56;3.60;69.50
4312;DHT22;2169;49.086;9.284;2022-12-10T11:38:28;3.60;69.40
4312;DHT22;2169;49.086;9.284;2022-12-10T11:41:03;3.60;69.30
4312;DHT22;2169;49.086;9.284;2022-12-10T11:44:00;3.60;69.10
4312;DHT22;2169;49.086;9.284;2022-12-10T11:46:56;3.60;68.90
4312;DHT22;2169;49.086;9.284;2022-12-10T11:49:47;3.60;69.10
4312;DHT22;2169;49.086;9.284;2022-12-10T11:52:23;3.60;68.80
4312;DHT22;2169;49.086;9.284;2022-12-10T11:55:02;3.60;68.80
4312;DHT22;2169;49.086;9.284;2022-12-10T11:57:43;3.60;68.60
4312;DHT22;2169;49.086;9.284;2022-12-10T12:00:19;3.70;68.60
4312;DHT22;2169;49.086;9.284;2022-12-10T12:03:06;3.70;68.60
4312;DHT22;2169;49.086;9.284;2022-12-10T12:06:00;3.70;68.60
4312;DHT22;2169;49.086;9.284;2022-12-10T12:08:46;3.70;68.50
4312;DHT22;2169;49.086;9.284;2022-12-10T12:11:30;3.70;68.40
4312;DHT22;2169;49.086;9.284;2022-12-10T12:14:04;3.70;68.20
4312;DHT22;2169;49.086;9.284;2022-12-10T12:16:37;3.70;68.20
4312;DHT22;2169;49.086;9.284;2022-12-10T12:19:13;3.70;68.10
4312;DHT22;2169;49.086;9.284;2022-12-10T12:21:44;3.70;68.10
4312;DHT22;2169;49.086;9.284;2022-12-10T12:24:16;3.80;68.90
4312;DHT22;2169;49.086;9.284;2022-12-10T12:26:48;3.80;68.10
4312;DHT22;2169;49.086;9.284;2022-12-10T12:29:20;3.90;68.20
4312;DHT22;2169;49.086;9.284;2022-12-10T12:31:55;3.90;68.10
4312;DHT22;2169;49.086;9.284;2022-12-10T12:34:27;3.90;68.00
4312;DHT22;2169;49.086;9.284;2022-12-10T12:36:57;3.90;67.70
4312;DHT22;2169;49.086;9.284;2022-12-10T12:39:30;3.90;67.70
4312;DHT22;2169;49.086;9.284;2022-12-10T12:42:06;3.90;67.70
4312;DHT22;2169;49.086;9.284;2022-12-10T12:44:48;3.90;67.60
4312;DHT22;2169;49.086;9.284;2022-12-10T12:47:30;3.90;67.50
4312;DHT22;2169;49.086;9.284;2022-12-10T12:49:59;3.90;67.40
4312;DHT22;2169;49.086;9.284;2022-12-10T12:52:36;3.90;67.40
4312;DHT22;2169;49.086;9.284;2022-12-10T12:55:14;3.90;67.30
4312;DHT22;2169;49.086;9.284;2022-12-10T12:57:46;3.90;67.20
4312;DHT22;2169;49.086;9.284;2022-12-10T13:00:18;3.90;67.20
4312;DHT22;2169;49.086;9.284;2022-12-10T13:02:56;3.90;67.20
4312;DHT22;2169;49.086;9.284;2022-12-10T13:05:30;3.90;67.20
4312;DHT22;2169;49.086;9.284;2022-12-10T13:08:32;3.90;67.20
4312;DHT22;2169;49.086;9.284;2022-12-10T13:11:17;3.90;67.10
4312;DHT22;2169;49.086;9.284;2022-12-10T13:14:14;3.80;67.00
4312;DHT22;2169;49.086;9.284;2022-12-10T13:16:49;3.80;67.00
4312;DHT22;2169;49.086;9.284;2022-12-10T13:19:30;3.80;67.10
4312;DHT22;2169;49.086;9.284;2022-12-10T13:22:03;3.80;67.10
4312;DHT22;2169;49.086;9.284;2022-12-10T13:24:47;3.80;67.10
4312;DHT22;2169;49.086;9.284;2022-12-10T13:27:30;3.80;66.90
4312;DHT22;2169;49.086;9.284;2022-12-10T13:30:01;3.80;66.90
4312;DHT22;2169;49.086;9.284;2022-12-10T13:32:44;3.80;66.90
4312;DHT22;2169;49.086;9.284;2022-12-10T13:35:22;3.80;66.90
4312;DHT22;2169;49.086;9.284;2022-12-10T13:37:56;3.90;67.00
4312;DHT22;2169;49.086;9.284;2022-12-10T13:40:26;3.90;66.90
4312;DHT22;2169;49.086;9.284;2022-12-10T13:42:58;3.90;67.00
4312;DHT22;2169;49.086;9.284;2022-12-10T13:45:43;3.90;66.90
4312;DHT22;2169;49.086;9.284;2022-12-10T13:48:39;3.90;66.80
4312;DHT22;2169;49.086;9.284;2022-12-10T13:51:18;4.00;66.80
4312;DHT22;2169;49.086;9.284;2022-12-10T13:53:55;3.90;66.70
4312;DHT22;2169;49.086;9.284;2022-12-10T13:56:28;3.90;66.70
4312;DHT22;2169;49.086;9.284;2022-12-10T13:59:09;3.90;66.60
4312;DHT22;2169;49.086;9.284;2022-12-10T14:01:45;3.90;66.60
4312;DHT22;2169;49.086;9.284;2022-12-10T14:04:34;3.90;66.60
4312;DHT22;2169;49.086;9.284;2022-12-10T14:07:07;3.90;66.50
4312;DHT22;2169;49.086;9.284;2022-12-10T14:09:45;3.80;66.30
4312;DHT22;2169;49.086;9.284;2022-12-10T14:12:18;3.80;66.30
4312;DHT22;2169;49.086;9.284;2022-12-10T14:14:52;3.80;66.40
4312;DHT22;2169;49.086;9.284;2022-12-10T14:17:29;3.90;66.40
4312;DHT22;2169;49.086;9.284;2022-12-10T14:19:57;3.90;66.40
4312;DHT22;2169;49.086;9.284;2022-12-10T14:22:31;3.90;66.30
4312;DHT22;2169;49.086;9.284;2022-12-10T14:25:02;3.90;66.30
4312;DHT22;2169;49.086;9.284;2022-12-10T14:27:35;3.90;66.30
4312;DHT22;2169;49.086;9.284;2022-12-10T14:30:17;3.90;66.20
4312;DHT22;2169;49.086;9.284;2022-12-10T14:32:45;3.90;66.10
4312;DHT22;2169;49.086;9.284;2022-12-10T14:35:14;3.90;66.00
4312;DHT22;2169;49.086;9.284;2022-12-10T14:37:44;3.90;66.00
4312;DHT22;2169;49.086;9.284;2022-12-10T14:40:19;3.90;66.00
4312;DHT22;2169;49.086;9.284;2022-12-10T14:42:47;4.00;66.00
4312;DHT22;2169;49.086;9.284;2022-12-10T14:45:15;4.00;66.00
4312;DHT22;2169;49.086;9.284;2022-12-10T14:47:42;4.00;66.00
4312;DHT22;2169;49.086;9.284;2022-12-10T14:50:11;4.00;65.90
4312;DHT22;2169;49.086;9.284;2022-12-10T14:52:41;4.00;65.70
4312;DHT22;2169;49.086;9.284;2022-12-10T14:55:13;4.00;66.20
4312;DHT22;2169;49.086;9.284;2022-12-10T14:57:44;4.00;65.40
4312;DHT22;2169;49.086;9.284;2022-12-10T15:00:18;4.00;65.40
4312;DHT22;2169;49.086;9.284;2022-12-10T15:02:48;4.00;65.40
4312;DHT22;2169;49.086;9.284;2022-12-10T15:05:19;4.00;65.30
4312;DHT22;2169;49.086;9.284;2022-12-10T15:07:53;4.00;65.40
4312;DHT22;2169;49.086;9.284;2022-12-10T15:10:24;4.00;65.20
4312;DHT22;2169;49.086;9.284;2022-12-10T15:12:53;4.00;65.20
4312;DHT22;2169;49.086;9.284;2022-12-10T15:15:26;3.90;65.00
4312;DHT22;2169;49.086;9.284;2022-12-10T15:17:58;3.90;64.90
4312;DHT22;2169;49.086;9.284;2022-12-10T15:20:27;3.80;64.70
4312;DHT22;2169;49.086;9.284;2022-12-10T15:23:07;3.80;64.60
4312;DHT22;2169;49.086;9.284;2022-12-10T15:25:42;3.80;64.50
4312;DHT22;2169;49.086;9.284;2022-12-10T15:28:22;3.70;64.30
4312;DHT22;2169;49.086;9.284;2022-12-10T15:30:54;3.70;64.40
4312;DHT22;2169;49.086;9.284;2022-12-10T15:33:28;3.70;64.40
4312;DHT22;2169;49.086;9.284;2022-12-10T15:35:58;3.60;64.30
4312;DHT22;2169;49.086;9.284;2022-12-10T15:38:30;3.60;64.30
4312;DHT22;2169;49.086;9.284;2022-12-10T15:40:59;3.60;64.30
4312;DHT22;2169;49.086;9.284;2022-12-10T15:43:56;3.60;64.30
4312;DHT22;2169;49.086;9.284;2022-12-10T15:46:26;3.60;64.30
4312;DHT22;2169;49.086;9.284;2022-12-10T15:48:53;3.50;64.20
4312;DHT22;2169;49.086;9.284;2022-12-10T15:51:19;3.50;64.20
4312;DHT22;2169;49.086;9.284;2022-12-10T15:53:47;3.40;64.10
4312;DHT22;2169;49.086;9.284;2022-12-10T15:56:14;3.40;64.20
4312;DHT22;2169;49.086;9.284;2022-12-10T15:58:42;3.30;64.20
4312;DHT22;2169;49.086;9.284;2022-12-10T16:01:11;3.30;64.30
4312;DHT22;2169;49.086;9.284;2022-12-10T16:03:40;3.30;64.30
4312;DHT22;2169;49.086;9.284;2022-12-10T16:06:08;3.30;64.30
4312;DHT22;2169;49.086;9.284;2022-12-10T16:08:35;3.30;64.30
4312;DHT22;2169;49.086;9.284;2022-12-10T16:11:10;3.20;64.20
4312;DHT22;2169;49.086;9.284;2022-12-10T16:13:44;3.20;64.30
4312;DHT22;2169;49.086;9.284;2022-12-10T16:16:13;3.20;64.30
4312;DHT22;2169;49.086;9.284;2022-12-10T16:18:41;3.20;64.30
4312;DHT22;2169;49.086;9.284;2022-12-10T16:21:09;3.10;64.30
4312;DHT22;2169;49.086;9.284;2022-12-10T16:23:37;3.10;64.30
4312;DHT22;2169;49.086;9.284;2022-12-10T16:26:13;3.10;64.30
4312;DHT22;2169;49.086;9.284;2022-12-10T16:28:42;3.10;65.00
4312;DHT22;2169;49.086;9.284;2022-12-10T16:31:11;3.00;64.90
4312;DHT22;2169;49.086;9.284;2022-12-10T16:33:41;3.00;64.30
4312;DHT22;2169;49.086;9.284;2022-12-10T16:36:09;2.90;64.30
4312;DHT22;2169;49.086;9.284;2022-12-10T16:38:37;2.90;64.30
4312;DHT22;2169;49.086;9.284;2022-12-10T16:41:13;2.90;64.30
4312;DHT22;2169;49.086;9.284;2022-12-10T16:43:41;2.90;64.40